Ancton, United Kingdom
Current Conditions -  °F | °C
As of 12:50 PM on Wednesday 26 Nov 2014 (Local Time) from EGKA Reporting Station
Drizzle Drizzle  
Wind Chill: 45°   Ceiling: 100
Heat Index: 48°   Visibility: 0.43mi
Dew Point: 48°   Wind: 7mph
Humidity: 100%   Direction: 350°N
Pressure: 29.83"   Gusts: NA
Location:  50.83°N, 0.63°W
Report Text: EGKA 261250Z 35006KT 0700 -DZ FG BKN001 09/09 Q1010
Loading
Personal Weather Stations






























Interactive Weather Map New forecast layout! Learn more

10-Day Weather Forecast

Advertisements
Track Severe Weather on mobile